Terminal Aerodrome Forecast
Issued by NWS Louisville, KY

Home | Current Version | Previous Version | Text Only | Print | Product List | Glossary On
Versions: 1 2 3 4 5 6 7 8 9 10 11 12
657
FTUS43 KLMK 131121
TAFLEX
TAF
KLEX 131121Z 1312/1412 21005KT P6SM SCT250
     FM131500 20012G23KT P6SM SCT250
     FM131800 20017G30KT P6SM SCT150 BKN250
     FM140300 26015G25KT P6SM BKN035
     FM140600 29011KT P6SM BKN035=

USA.gov is the U.S. government's official web portal to all federal, state and local government web resources and services.